sensor_id;sensor_type;location;lat;lon;timestamp;temperature;humidity
45229;DHT22;30967;51.728;8.682;2022-09-16T00:00:32;17.10;99.90
45229;DHT22;30967;51.728;8.682;2022-09-16T00:02:59;17.10;99.90
45229;DHT22;30967;51.728;8.682;2022-09-16T00:05:25;17.00;99.90
45229;DHT22;30967;51.728;8.682;2022-09-16T00:07:52;17.00;99.90
45229;DHT22;30967;51.728;8.682;2022-09-16T00:10:18;17.10;99.90
45229;DHT22;30967;51.728;8.682;2022-09-16T00:12:43;17.00;99.90
45229;DHT22;30967;51.728;8.682;2022-09-16T00:15:09;17.00;99.90
45229;DHT22;30967;51.728;8.682;2022-09-16T00:17:35;17.00;99.90
45229;DHT22;30967;51.728;8.682;2022-09-16T00:20:02;17.00;99.90
45229;DHT22;30967;51.728;8.682;2022-09-16T00:22:28;17.00;99.90
45229;DHT22;30967;51.728;8.682;2022-09-16T00:24:53;17.00;99.90
45229;DHT22;30967;51.728;8.682;2022-09-16T00:27:19;17.00;99.90
45229;DHT22;30967;51.728;8.682;2022-09-16T00:29:45;17.00;99.90
45229;DHT22;30967;51.728;8.682;2022-09-16T00:32:10;17.00;99.90
45229;DHT22;30967;51.728;8.682;2022-09-16T00:34:36;17.00;99.90
45229;DHT22;30967;51.728;8.682;2022-09-16T00:37:01;17.00;99.90
45229;DHT22;30967;51.728;8.682;2022-09-16T00:39:28;17.00;99.90
45229;DHT22;30967;51.728;8.682;2022-09-16T00:41:54;17.00;99.90
45229;DHT22;30967;51.728;8.682;2022-09-16T00:47:24;16.90;99.90
45229;DHT22;30967;51.728;8.682;2022-09-16T00:49:52;16.90;99.90
45229;DHT22;30967;51.728;8.682;2022-09-16T00:52:20;16.90;99.90
45229;DHT22;30967;51.728;8.682;2022-09-16T00:54:46;17.00;99.90
45229;DHT22;30967;51.728;8.682;2022-09-16T00:57:13;16.90;99.90
45229;DHT22;30967;51.728;8.682;2022-09-16T00:59:42;17.00;99.90
45229;DHT22;30967;51.728;8.682;2022-09-16T01:02:12;16.90;99.90
45229;DHT22;30967;51.728;8.682;2022-09-16T01:04:46;16.90;99.90
45229;DHT22;30967;51.728;8.682;2022-09-16T01:07:13;16.90;99.90
45229;DHT22;30967;51.728;8.682;2022-09-16T01:09:39;16.90;99.90
45229;DHT22;30967;51.728;8.682;2022-09-16T01:12:05;16.90;99.90
45229;DHT22;30967;51.728;8.682;2022-09-16T01:14:31;16.90;99.90
45229;DHT22;30967;51.728;8.682;2022-09-16T01:17:52;16.90;99.90
45229;DHT22;30967;51.728;8.682;2022-09-16T01:26:03;16.90;99.90
45229;DHT22;30967;51.728;8.682;2022-09-16T01:29:01;16.90;99.90
45229;DHT22;30967;51.728;8.682;2022-09-16T01:34:27;16.90;99.90
45229;DHT22;30967;51.728;8.682;2022-09-16T01:37:07;16.90;99.90
45229;DHT22;30967;51.728;8.682;2022-09-16T01:42:49;16.80;99.90
45229;DHT22;30967;51.728;8.682;2022-09-16T01:45:19;16.80;99.90
45229;DHT22;30967;51.728;8.682;2022-09-16T01:48:51;16.80;99.90
45229;DHT22;30967;51.728;8.682;2022-09-16T01:55:56;16.80;99.90
45229;DHT22;30967;51.728;8.682;2022-09-16T02:01:22;16.80;99.90
45229;DHT22;30967;51.728;8.682;2022-09-16T02:03:54;16.80;99.90
45229;DHT22;30967;51.728;8.682;2022-09-16T02:06:23;16.70;99.90
45229;DHT22;30967;51.728;8.682;2022-09-16T02:08:51;16.70;99.90
45229;DHT22;30967;51.728;8.682;2022-09-16T02:11:19;16.70;99.90
45229;DHT22;30967;51.728;8.682;2022-09-16T02:13:54;16.70;99.90
45229;DHT22;30967;51.728;8.682;2022-09-16T02:16:49;16.70;99.90
45229;DHT22;30967;51.728;8.682;2022-09-16T02:19:24;16.70;99.90
45229;DHT22;30967;51.728;8.682;2022-09-16T02:21:52;16.70;99.90
45229;DHT22;30967;51.728;8.682;2022-09-16T02:24:23;16.60;99.90
45229;DHT22;30967;51.728;8.682;2022-09-16T02:27:03;16.70;99.90
45229;DHT22;30967;51.728;8.682;2022-09-16T02:29:43;16.60;99.90
45229;DHT22;30967;51.728;8.682;2022-09-16T02:32:11;16.60;99.90
45229;DHT22;30967;51.728;8.682;2022-09-16T02:34:42;16.70;99.90
45229;DHT22;30967;51.728;8.682;2022-09-16T02:37:22;16.70;99.90
45229;DHT22;30967;51.728;8.682;2022-09-16T02:39:52;16.60;99.90
45229;DHT22;30967;51.728;8.682;2022-09-16T02:42:19;16.60;99.90
45229;DHT22;30967;51.728;8.682;2022-09-16T02:44:45;16.60;99.90
45229;DHT22;30967;51.728;8.682;2022-09-16T02:47:38;16.60;99.90
45229;DHT22;30967;51.728;8.682;2022-09-16T02:50:28;16.60;99.90
45229;DHT22;30967;51.728;8.682;2022-09-16T02:53:01;16.60;99.90
45229;DHT22;30967;51.728;8.682;2022-09-16T02:58:16;16.60;99.90
45229;DHT22;30967;51.728;8.682;2022-09-16T03:00:45;16.60;99.90
45229;DHT22;30967;51.728;8.682;2022-09-16T03:03:12;16.60;99.90
45229;DHT22;30967;51.728;8.682;2022-09-16T03:08:22;16.60;99.90
45229;DHT22;30967;51.728;8.682;2022-09-16T03:10:48;16.60;99.90
45229;DHT22;30967;51.728;8.682;2022-09-16T03:13:30;16.50;99.90
45229;DHT22;30967;51.728;8.682;2022-09-16T03:16:18;16.50;99.90
45229;DHT22;30967;51.728;8.682;2022-09-16T03:19:02;16.50;99.90
45229;DHT22;30967;51.728;8.682;2022-09-16T03:24:58;16.50;99.90
45229;DHT22;30967;51.728;8.682;2022-09-16T03:27:33;16.50;99.90
45229;DHT22;30967;51.728;8.682;2022-09-16T03:30:09;16.50;99.90
45229;DHT22;30967;51.728;8.682;2022-09-16T03:35:24;16.50;99.90
45229;DHT22;30967;51.728;8.682;2022-09-16T03:37:53;16.50;99.90
45229;DHT22;30967;51.728;8.682;2022-09-16T03:40:21;16.40;99.90
45229;DHT22;30967;51.728;8.682;2022-09-16T03:42:47;16.50;99.90
45229;DHT22;30967;51.728;8.682;2022-09-16T03:45:17;16.40;99.90
45229;DHT22;30967;51.728;8.682;2022-09-16T03:47:45;16.40;99.90
45229;DHT22;30967;51.728;8.682;2022-09-16T03:50:12;16.40;99.90
45229;DHT22;30967;51.728;8.682;2022-09-16T03:52:38;16.40;99.90
45229;DHT22;30967;51.728;8.682;2022-09-16T03:55:06;16.40;99.90
45229;DHT22;30967;51.728;8.682;2022-09-16T03:57:32;16.40;99.90
45229;DHT22;30967;51.728;8.682;2022-09-16T03:59:58;16.40;99.90
45229;DHT22;30967;51.728;8.682;2022-09-16T04:02:24;16.40;99.90
45229;DHT22;30967;51.728;8.682;2022-09-16T04:04:50;16.40;99.90
45229;DHT22;30967;51.728;8.682;2022-09-16T04:07:16;16.40;99.90
45229;DHT22;30967;51.728;8.682;2022-09-16T04:09:42;16.40;99.90
45229;DHT22;30967;51.728;8.682;2022-09-16T04:12:08;16.40;99.90
45229;DHT22;30967;51.728;8.682;2022-09-16T04:14:34;16.40;99.90
45229;DHT22;30967;51.728;8.682;2022-09-16T04:17:00;16.40;99.90
45229;DHT22;30967;51.728;8.682;2022-09-16T04:19:31;16.40;99.90
45229;DHT22;30967;51.728;8.682;2022-09-16T04:21:57;16.40;99.90
45229;DHT22;30967;51.728;8.682;2022-09-16T04:24:23;16.40;99.90
45229;DHT22;30967;51.728;8.682;2022-09-16T04:26:49;16.40;99.90
45229;DHT22;30967;51.728;8.682;2022-09-16T04:29:14;16.40;99.90
45229;DHT22;30967;51.728;8.682;2022-09-16T04:31:42;16.40;99.90
45229;DHT22;30967;51.728;8.682;2022-09-16T04:34:08;16.40;99.90
45229;DHT22;30967;51.728;8.682;2022-09-16T04:36:36;16.40;99.90
45229;DHT22;30967;51.728;8.682;2022-09-16T04:39:02;16.30;99.90
45229;DHT22;30967;51.728;8.682;2022-09-16T04:41:27;16.40;99.90
45229;DHT22;30967;51.728;8.682;2022-09-16T04:43:55;16.30;99.90
45229;DHT22;30967;51.728;8.682;2022-09-16T04:46:22;16.40;99.90
45229;DHT22;30967;51.728;8.682;2022-09-16T04:48:51;16.30;99.90
45229;DHT22;30967;51.728;8.682;2022-09-16T04:51:18;16.30;99.90
45229;DHT22;30967;51.728;8.682;2022-09-16T04:53:44;16.30;99.90
45229;DHT22;30967;51.728;8.682;2022-09-16T04:56:13;16.30;99.90
45229;DHT22;30967;51.728;8.682;2022-09-16T04:58:40;16.30;99.90
45229;DHT22;30967;51.728;8.682;2022-09-16T05:01:09;16.40;99.90
45229;DHT22;30967;51.728;8.682;2022-09-16T05:03:43;16.30;99.90
45229;DHT22;30967;51.728;8.682;2022-09-16T05:06:18;16.30;99.90
45229;DHT22;30967;51.728;8.682;2022-09-16T05:08:45;16.30;99.90
45229;DHT22;30967;51.728;8.682;2022-09-16T05:11:14;16.30;99.90
45229;DHT22;30967;51.728;8.682;2022-09-16T05:13:40;16.30;99.90
45229;DHT22;30967;51.728;8.682;2022-09-16T05:16:08;16.30;99.90
45229;DHT22;30967;51.728;8.682;2022-09-16T05:18:38;16.30;99.90
45229;DHT22;30967;51.728;8.682;2022-09-16T05:21:06;16.30;99.90
45229;DHT22;30967;51.728;8.682;2022-09-16T05:23:33;16.30;99.90
45229;DHT22;30967;51.728;8.682;2022-09-16T05:26:07;16.20;99.90
45229;DHT22;30967;51.728;8.682;2022-09-16T05:28:34;16.20;99.90
45229;DHT22;30967;51.728;8.682;2022-09-16T05:31:20;16.20;99.90
45229;DHT22;30967;51.728;8.682;2022-09-16T05:33:56;16.20;99.90
45229;DHT22;30967;51.728;8.682;2022-09-16T05:36:23;16.20;99.90
45229;DHT22;30967;51.728;8.682;2022-09-16T05:38:49;16.20;99.90
45229;DHT22;30967;51.728;8.682;2022-09-16T05:41:15;16.30;99.90
45229;DHT22;30967;51.728;8.682;2022-09-16T05:43:40;16.20;99.90
45229;DHT22;30967;51.728;8.682;2022-09-16T05:46:06;16.20;99.90
45229;DHT22;30967;51.728;8.682;2022-09-16T05:48:34;16.20;99.90
45229;DHT22;30967;51.728;8.682;2022-09-16T05:51:03;16.20;99.90
45229;DHT22;30967;51.728;8.682;2022-09-16T05:53:30;16.20;99.90
45229;DHT22;30967;51.728;8.682;2022-09-16T05:56:04;16.20;99.90
45229;DHT22;30967;51.728;8.682;2022-09-16T05:58:31;16.20;99.90
45229;DHT22;30967;51.728;8.682;2022-09-16T06:01:00;16.20;99.90
45229;DHT22;30967;51.728;8.682;2022-09-16T06:03:26;16.20;99.90
45229;DHT22;30967;51.728;8.682;2022-09-16T06:06:00;16.20;99.90
45229;DHT22;30967;51.728;8.682;2022-09-16T06:08:28;16.20;99.90
45229;DHT22;30967;51.728;8.682;2022-09-16T06:10:54;16.20;99.90
45229;DHT22;30967;51.728;8.682;2022-09-16T06:13:20;16.20;99.90
45229;DHT22;30967;51.728;8.682;2022-09-16T06:15:49;16.20;99.90
45229;DHT22;30967;51.728;8.682;2022-09-16T06:18:25;16.20;99.90
45229;DHT22;30967;51.728;8.682;2022-09-16T06:20:54;16.20;99.90
45229;DHT22;30967;51.728;8.682;2022-09-16T06:23:19;16.20;99.90
45229;DHT22;30967;51.728;8.682;2022-09-16T06:25:45;16.20;99.90
45229;DHT22;30967;51.728;8.682;2022-09-16T06:28:12;16.20;99.90
45229;DHT22;30967;51.728;8.682;2022-09-16T06:30:38;16.20;99.90
45229;DHT22;30967;51.728;8.682;2022-09-16T06:33:04;16.20;99.90
45229;DHT22;30967;51.728;8.682;2022-09-16T06:35:30;16.20;99.90
45229;DHT22;30967;51.728;8.682;2022-09-16T06:37:55;16.20;99.90
45229;DHT22;30967;51.728;8.682;2022-09-16T06:40:21;16.20;99.90
45229;DHT22;30967;51.728;8.682;2022-09-16T06:42:47;16.20;99.90
45229;DHT22;30967;51.728;8.682;2022-09-16T06:45:22;16.20;99.90
45229;DHT22;30967;51.728;8.682;2022-09-16T06:47:48;16.20;99.90
45229;DHT22;30967;51.728;8.682;2022-09-16T06:50:13;16.20;99.90
45229;DHT22;30967;51.728;8.682;2022-09-16T06:52:39;16.30;99.90
45229;DHT22;30967;51.728;8.682;2022-09-16T06:55:05;16.30;99.90
45229;DHT22;30967;51.728;8.682;2022-09-16T06:57:30;16.20;99.90
45229;DHT22;30967;51.728;8.682;2022-09-16T06:59:56;16.20;99.90
45229;DHT22;30967;51.728;8.682;2022-09-16T07:02:21;16.20;99.90
45229;DHT22;30967;51.728;8.682;2022-09-16T07:04:48;16.20;99.90
45229;DHT22;30967;51.728;8.682;2022-09-16T07:07:13;16.20;99.90
45229;DHT22;30967;51.728;8.682;2022-09-16T07:09:39;16.20;99.90
45229;DHT22;30967;51.728;8.682;2022-09-16T07:12:06;16.30;99.90
45229;DHT22;30967;51.728;8.682;2022-09-16T07:14:32;16.30;99.90
45229;DHT22;30967;51.728;8.682;2022-09-16T07:17:03;16.30;99.90
45229;DHT22;30967;51.728;8.682;2022-09-16T07:19:29;16.30;99.90
45229;DHT22;30967;51.728;8.682;2022-09-16T07:21:55;16.30;99.90
45229;DHT22;30967;51.728;8.682;2022-09-16T07:24:21;16.20;99.90
45229;DHT22;30967;51.728;8.682;2022-09-16T07:26:46;16.20;99.90
45229;DHT22;30967;51.728;8.682;2022-09-16T07:29:16;16.20;99.90
45229;DHT22;30967;51.728;8.682;2022-09-16T07:31:41;16.20;99.90
45229;DHT22;30967;51.728;8.682;2022-09-16T07:34:09;16.20;99.90
45229;DHT22;30967;51.728;8.682;2022-09-16T07:36:43;16.30;99.90
45229;DHT22;30967;51.728;8.682;2022-09-16T07:39:10;16.30;99.90
45229;DHT22;30967;51.728;8.682;2022-09-16T07:41:41;16.20;99.90
45229;DHT22;30967;51.728;8.682;2022-09-16T07:44:11;16.30;99.90
45229;DHT22;30967;51.728;8.682;2022-09-16T07:46:37;16.30;99.90
45229;DHT22;30967;51.728;8.682;2022-09-16T07:49:06;16.30;99.90
45229;DHT22;30967;51.728;8.682;2022-09-16T07:51:33;16.30;99.90
45229;DHT22;30967;51.728;8.682;2022-09-16T07:54:02;16.30;99.90
45229;DHT22;30967;51.728;8.682;2022-09-16T07:56:33;16.30;99.90
45229;DHT22;30967;51.728;8.682;2022-09-16T07:59:00;16.30;99.90
45229;DHT22;30967;51.728;8.682;2022-09-16T08:01:26;16.20;99.90
45229;DHT22;30967;51.728;8.682;2022-09-16T08:03:52;16.30;99.90
45229;DHT22;30967;51.728;8.682;2022-09-16T08:06:20;16.30;99.90
45229;DHT22;30967;51.728;8.682;2022-09-16T08:08:46;16.30;99.90
45229;DHT22;30967;51.728;8.682;2022-09-16T08:11:13;16.30;99.90
45229;DHT22;30967;51.728;8.682;2022-09-16T08:13:40;16.30;99.90
45229;DHT22;30967;51.728;8.682;2022-09-16T08:16:09;16.30;99.90
45229;DHT22;30967;51.728;8.682;2022-09-16T08:18:35;16.30;99.90
45229;DHT22;30967;51.728;8.682;2022-09-16T08:21:07;16.30;99.90
45229;DHT22;30967;51.728;8.682;2022-09-16T08:23:34;16.30;99.90
45229;DHT22;30967;51.728;8.682;2022-09-16T08:25:59;16.30;99.90
45229;DHT22;30967;51.728;8.682;2022-09-16T08:28:26;16.30;99.90
45229;DHT22;30967;51.728;8.682;2022-09-16T08:30:52;16.30;99.90
45229;DHT22;30967;51.728;8.682;2022-09-16T08:33:18;16.30;99.90
45229;DHT22;30967;51.728;8.682;2022-09-16T08:38:29;16.40;99.90
45229;DHT22;30967;51.728;8.682;2022-09-16T08:43:45;16.30;99.90
45229;DHT22;30967;51.728;8.682;2022-09-16T08:46:15;16.40;99.90
45229;DHT22;30967;51.728;8.682;2022-09-16T08:48:50;16.40;99.90
45229;DHT22;30967;51.728;8.682;2022-09-16T08:51:19;16.40;99.90
45229;DHT22;30967;51.728;8.682;2022-09-16T08:56:15;16.40;99.90
45229;DHT22;30967;51.728;8.682;2022-09-16T08:58:44;16.30;99.90
45229;DHT22;30967;51.728;8.682;2022-09-16T09:04:02;16.40;99.90
45229;DHT22;30967;51.728;8.682;2022-09-16T09:09:46;16.40;99.90
45229;DHT22;30967;51.728;8.682;2022-09-16T09:12:36;16.40;99.90
45229;DHT22;30967;51.728;8.682;2022-09-16T09:15:39;16.40;99.90
45229;DHT22;30967;51.728;8.682;2022-09-16T09:26:26;16.50;99.90
45229;DHT22;30967;51.728;8.682;2022-09-16T09:32:10;16.50;99.90
45229;DHT22;30967;51.728;8.682;2022-09-16T09:34:59;16.60;99.90
45229;DHT22;30967;51.728;8.682;2022-09-16T09:43:08;16.60;99.90
45229;DHT22;30967;51.728;8.682;2022-09-16T09:45:45;16.70;99.90
45229;DHT22;30967;51.728;8.682;2022-09-16T09:48:20;16.70;99.90
45229;DHT22;30967;51.728;8.682;2022-09-16T09:50:48;16.70;99.90
45229;DHT22;30967;51.728;8.682;2022-09-16T09:53:27;16.70;99.90
45229;DHT22;30967;51.728;8.682;2022-09-16T09:58:43;16.90;99.80
45229;DHT22;30967;51.728;8.682;2022-09-16T10:01:10;16.80;99.80
45229;DHT22;30967;51.728;8.682;2022-09-16T10:03:36;16.90;99.70
45229;DHT22;30967;51.728;8.682;2022-09-16T10:06:03;16.90;99.50
45229;DHT22;30967;51.728;8.682;2022-09-16T10:08:46;17.00;99.00
45229;DHT22;30967;51.728;8.682;2022-09-16T10:11:18;17.00;99.00
45229;DHT22;30967;51.728;8.682;2022-09-16T10:13:50;17.10;98.60
45229;DHT22;30967;51.728;8.682;2022-09-16T10:16:27;17.10;98.60
45229;DHT22;30967;51.728;8.682;2022-09-16T10:19:07;17.10;98.30
45229;DHT22;30967;51.728;8.682;2022-09-16T10:22:08;17.20;97.60
45229;DHT22;30967;51.728;8.682;2022-09-16T10:24:37;17.20;97.30
45229;DHT22;30967;51.728;8.682;2022-09-16T10:27:23;17.20;97.30
45229;DHT22;30967;51.728;8.682;2022-09-16T10:30:16;17.20;96.60
45229;DHT22;30967;51.728;8.682;2022-09-16T10:33:02;17.30;96.30
45229;DHT22;30967;51.728;8.682;2022-09-16T10:35:29;17.30;96.50
45229;DHT22;30967;51.728;8.682;2022-09-16T10:38:03;17.30;96.40
45229;DHT22;30967;51.728;8.682;2022-09-16T10:40:29;17.30;96.70
45229;DHT22;30967;51.728;8.682;2022-09-16T10:43:03;17.40;96.80
45229;DHT22;30967;51.728;8.682;2022-09-16T10:45:34;17.40;96.90
45229;DHT22;30967;51.728;8.682;2022-09-16T10:48:05;17.40;96.90
45229;DHT22;30967;51.728;8.682;2022-09-16T10:50:31;17.40;96.70
45229;DHT22;30967;51.728;8.682;2022-09-16T10:52:57;17.40;95.80
45229;DHT22;30967;51.728;8.682;2022-09-16T10:55:29;17.40;95.10
45229;DHT22;30967;51.728;8.682;2022-09-16T10:58:17;17.50;94.70
45229;DHT22;30967;51.728;8.682;2022-09-16T11:01:06;17.50;94.50
45229;DHT22;30967;51.728;8.682;2022-09-16T11:09:34;17.50;94.90
45229;DHT22;30967;51.728;8.682;2022-09-16T11:15:11;17.60;93.90
45229;DHT22;30967;51.728;8.682;2022-09-16T11:26:57;17.60;92.80
45229;DHT22;30967;51.728;8.682;2022-09-16T11:37:41;17.70;92.20
45229;DHT22;30967;51.728;8.682;2022-09-16T11:40:22;17.80;92.10
45229;DHT22;30967;51.728;8.682;2022-09-16T11:43:31;17.80;92.60
45229;DHT22;30967;51.728;8.682;2022-09-16T11:48:46;17.90;92.50
45229;DHT22;30967;51.728;8.682;2022-09-16T11:56:45;18.00;92.30
45229;DHT22;30967;51.728;8.682;2022-09-16T11:59:47;18.00;92.20
45229;DHT22;30967;51.728;8.682;2022-09-16T12:11:26;18.20;91.90
45229;DHT22;30967;51.728;8.682;2022-09-16T12:13:51;18.30;91.80
45229;DHT22;30967;51.728;8.682;2022-09-16T12:16:55;18.30;91.60
45229;DHT22;30967;51.728;8.682;2022-09-16T12:19:35;18.40;91.50
45229;DHT22;30967;51.728;8.682;2022-09-16T12:22:48;18.40;91.30
45229;DHT22;30967;51.728;8.682;2022-09-16T12:25:14;18.50;91.10
45229;DHT22;30967;51.728;8.682;2022-09-16T12:28:22;18.50;91.30
45229;DHT22;30967;51.728;8.682;2022-09-16T12:31:00;18.60;91.70
45229;DHT22;30967;51.728;8.682;2022-09-16T12:33:37;18.70;91.70
45229;DHT22;30967;51.728;8.682;2022-09-16T12:36:09;18.70;91.60
45229;DHT22;30967;51.728;8.682;2022-09-16T12:38:37;18.80;91.60
45229;DHT22;30967;51.728;8.682;2022-09-16T12:41:31;18.80;91.50
45229;DHT22;30967;51.728;8.682;2022-09-16T12:55:30;19.00;90.50
45229;DHT22;30967;51.728;8.682;2022-09-16T13:03:37;19.10;90.40
45229;DHT22;30967;51.728;8.682;2022-09-16T13:06:22;19.10;90.30
45229;DHT22;30967;51.728;8.682;2022-09-16T13:08:48;19.20;90.70
45229;DHT22;30967;51.728;8.682;2022-09-16T13:11:27;19.20;91.40
45229;DHT22;30967;51.728;8.682;2022-09-16T13:13:57;19.20;91.50
45229;DHT22;30967;51.728;8.682;2022-09-16T13:16:34;19.20;91.90
45229;DHT22;30967;51.728;8.682;2022-09-16T13:19:20;19.30;91.80
45229;DHT22;30967;51.728;8.682;2022-09-16T13:21:53;19.30;91.90
45229;DHT22;30967;51.728;8.682;2022-09-16T13:24:41;19.30;92.00
45229;DHT22;30967;51.728;8.682;2022-09-16T13:27:32;19.40;92.40
45229;DHT22;30967;51.728;8.682;2022-09-16T13:30:13;19.40;92.70
45229;DHT22;30967;51.728;8.682;2022-09-16T13:32:43;19.40;93.30
45229;DHT22;30967;51.728;8.682;2022-09-16T13:37:49;19.40;93.30
45229;DHT22;30967;51.728;8.682;2022-09-16T13:43:10;19.40;94.10
45229;DHT22;30967;51.728;8.682;2022-09-16T13:45:42;19.40;94.40
45229;DHT22;30967;51.728;8.682;2022-09-16T13:48:16;19.40;94.60
45229;DHT22;30967;51.728;8.682;2022-09-16T13:50:52;19.40;94.90
45229;DHT22;30967;51.728;8.682;2022-09-16T13:53:27;19.40;94.80
45229;DHT22;30967;51.728;8.682;2022-09-16T13:56:00;19.30;94.70
45229;DHT22;30967;51.728;8.682;2022-09-16T13:58:32;19.30;94.80
45229;DHT22;30967;51.728;8.682;2022-09-16T14:06:56;19.30;94.90
45229;DHT22;30967;51.728;8.682;2022-09-16T14:09:46;19.30;95.10
45229;DHT22;30967;51.728;8.682;2022-09-16T14:12:26;19.20;95.10
45229;DHT22;30967;51.728;8.682;2022-09-16T14:14:57;19.30;94.80
45229;DHT22;30967;51.728;8.682;2022-09-16T14:17:23;19.30;94.40
45229;DHT22;30967;51.728;8.682;2022-09-16T14:19:57;19.30;94.10
45229;DHT22;30967;51.728;8.682;2022-09-16T14:22:23;19.30;94.10
45229;DHT22;30967;51.728;8.682;2022-09-16T14:24:52;19.40;93.80
45229;DHT22;30967;51.728;8.682;2022-09-16T14:27:30;19.40;93.70
45229;DHT22;30967;51.728;8.682;2022-09-16T14:29:59;19.50;93.20
45229;DHT22;30967;51.728;8.682;2022-09-16T14:32:28;19.60;92.80
45229;DHT22;30967;51.728;8.682;2022-09-16T14:34:57;19.60;92.10
45229;DHT22;30967;51.728;8.682;2022-09-16T14:37:27;19.60;92.10
45229;DHT22;30967;51.728;8.682;2022-09-16T14:39:55;19.70;91.40
45229;DHT22;30967;51.728;8.682;2022-09-16T14:42:28;19.80;91.40
45229;DHT22;30967;51.728;8.682;2022-09-16T14:44:55;19.80;91.10
45229;DHT22;30967;51.728;8.682;2022-09-16T14:47:31;19.90;90.50
45229;DHT22;30967;51.728;8.682;2022-09-16T14:50:12;19.90;90.20
45229;DHT22;30967;51.728;8.682;2022-09-16T14:52:38;19.90;90.00
45229;DHT22;30967;51.728;8.682;2022-09-16T14:55:28;20.00;89.80
45229;DHT22;30967;51.728;8.682;2022-09-16T14:57:58;20.00;89.50
45229;DHT22;30967;51.728;8.682;2022-09-16T15:00:28;20.00;89.90
45229;DHT22;30967;51.728;8.682;2022-09-16T15:02:59;20.10;89.50
45229;DHT22;30967;51.728;8.682;2022-09-16T15:05:33;20.10;90.00
45229;DHT22;30967;51.728;8.682;2022-09-16T15:10:47;20.20;90.10
45229;DHT22;30967;51.728;8.682;2022-09-16T15:13:15;20.20;90.00
45229;DHT22;30967;51.728;8.682;2022-09-16T15:15:56;20.20;90.20
45229;DHT22;30967;51.728;8.682;2022-09-16T15:18:31;20.20;90.60
45229;DHT22;30967;51.728;8.682;2022-09-16T15:21:20;20.20;89.70
45229;DHT22;30967;51.728;8.682;2022-09-16T15:23:49;20.30;89.00
45229;DHT22;30967;51.728;8.682;2022-09-16T15:26:42;20.30;89.20
45229;DHT22;30967;51.728;8.682;2022-09-16T15:31:43;20.30;89.00
45229;DHT22;30967;51.728;8.682;2022-09-16T15:36:53;20.20;88.90
45229;DHT22;30967;51.728;8.682;2022-09-16T15:39:31;20.20;88.90
45229;DHT22;30967;51.728;8.682;2022-09-16T15:44:49;20.10;89.80
45229;DHT22;30967;51.728;8.682;2022-09-16T15:47:17;20.10;89.10
45229;DHT22;30967;51.728;8.682;2022-09-16T15:49:43;20.00;90.20
45229;DHT22;30967;51.728;8.682;2022-09-16T15:52:11;20.00;89.50
45229;DHT22;30967;51.728;8.682;2022-09-16T15:54:44;20.00;90.10
45229;DHT22;30967;51.728;8.682;2022-09-16T16:00:07;19.80;91.10
45229;DHT22;30967;51.728;8.682;2022-09-16T16:05:27;19.60;91.50
45229;DHT22;30967;51.728;8.682;2022-09-16T16:08:02;19.50;91.70
45229;DHT22;30967;51.728;8.682;2022-09-16T16:10:32;19.50;91.90
45229;DHT22;30967;51.728;8.682;2022-09-16T16:13:01;19.40;92.20
45229;DHT22;30967;51.728;8.682;2022-09-16T16:15:33;19.30;92.20
45229;DHT22;30967;51.728;8.682;2022-09-16T16:18:02;19.20;92.50
45229;DHT22;30967;51.728;8.682;2022-09-16T16:20:29;19.20;92.80
45229;DHT22;30967;51.728;8.682;2022-09-16T16:22:58;19.10;93.00
45229;DHT22;30967;51.728;8.682;2022-09-16T16:25:24;19.10;93.20
45229;DHT22;30967;51.728;8.682;2022-09-16T16:27:50;19.00;93.40
45229;DHT22;30967;51.728;8.682;2022-09-16T16:30:15;19.00;93.60
45229;DHT22;30967;51.728;8.682;2022-09-16T16:32:41;18.90;93.60
45229;DHT22;30967;51.728;8.682;2022-09-16T16:35:09;18.90;93.70
45229;DHT22;30967;51.728;8.682;2022-09-16T16:37:34;18.80;93.80
45229;DHT22;30967;51.728;8.682;2022-09-16T16:40:02;18.70;94.00
45229;DHT22;30967;51.728;8.682;2022-09-16T16:42:27;18.70;94.20
45229;DHT22;30967;51.728;8.682;2022-09-16T16:44:53;18.70;94.60
45229;DHT22;30967;51.728;8.682;2022-09-16T16:47:18;18.60;94.90
45229;DHT22;30967;51.728;8.682;2022-09-16T16:49:44;18.60;95.40
45229;DHT22;30967;51.728;8.682;2022-09-16T16:52:11;18.50;95.60
45229;DHT22;30967;51.728;8.682;2022-09-16T16:54:36;18.50;95.60
45229;DHT22;30967;51.728;8.682;2022-09-16T16:57:02;18.40;95.90
45229;DHT22;30967;51.728;8.682;2022-09-16T16:59:28;18.40;96.20
45229;DHT22;30967;51.728;8.682;2022-09-16T17:01:56;18.30;96.30
45229;DHT22;30967;51.728;8.682;2022-09-16T17:04:23;18.30;96.40
45229;DHT22;30967;51.728;8.682;2022-09-16T17:06:49;18.20;96.70
45229;DHT22;30967;51.728;8.682;2022-09-16T17:09:15;18.20;96.90
45229;DHT22;30967;51.728;8.682;2022-09-16T17:11:56;18.20;96.90
45229;DHT22;30967;51.728;8.682;2022-09-16T17:14:24;18.10;97.00
45229;DHT22;30967;51.728;8.682;2022-09-16T17:16:50;18.10;97.10
45229;DHT22;30967;51.728;8.682;2022-09-16T17:19:18;18.10;97.20
45229;DHT22;30967;51.728;8.682;2022-09-16T17:21:44;18.00;97.00
45229;DHT22;30967;51.728;8.682;2022-09-16T17:24:17;17.90;97.00
45229;DHT22;30967;51.728;8.682;2022-09-16T17:26:43;17.90;97.20
45229;DHT22;30967;51.728;8.682;2022-09-16T17:29:09;17.80;97.30
45229;DHT22;30967;51.728;8.682;2022-09-16T17:31:36;17.80;97.30
45229;DHT22;30967;51.728;8.682;2022-09-16T17:34:05;17.70;97.40
45229;DHT22;30967;51.728;8.682;2022-09-16T17:36:43;17.70;97.50
45229;DHT22;30967;51.728;8.682;2022-09-16T17:39:11;17.70;97.70
45229;DHT22;30967;51.728;8.682;2022-09-16T17:41:41;17.60;97.80
45229;DHT22;30967;51.728;8.682;2022-09-16T17:44:11;17.60;97.90
45229;DHT22;30967;51.728;8.682;2022-09-16T17:46:38;17.60;98.00
45229;DHT22;30967;51.728;8.682;2022-09-16T17:49:06;17.50;98.00
45229;DHT22;30967;51.728;8.682;2022-09-16T17:51:33;17.50;98.10
45229;DHT22;30967;51.728;8.682;2022-09-16T17:53:59;17.50;98.20
45229;DHT22;30967;51.728;8.682;2022-09-16T17:56:25;17.40;98.30
45229;DHT22;30967;51.728;8.682;2022-09-16T17:58:52;17.40;98.40
45229;DHT22;30967;51.728;8.682;2022-09-16T18:01:20;17.40;98.80
45229;DHT22;30967;51.728;8.682;2022-09-16T18:03:48;17.30;98.50
45229;DHT22;30967;51.728;8.682;2022-09-16T18:06:19;17.30;98.60
45229;DHT22;30967;51.728;8.682;2022-09-16T18:08:48;17.30;98.70
45229;DHT22;30967;51.728;8.682;2022-09-16T18:11:15;17.20;98.90
45229;DHT22;30967;51.728;8.682;2022-09-16T18:13:41;17.20;98.80
45229;DHT22;30967;51.728;8.682;2022-09-16T18:16:10;17.20;98.90
45229;DHT22;30967;51.728;8.682;2022-09-16T18:18:41;17.20;98.90
45229;DHT22;30967;51.728;8.682;2022-09-16T18:21:09;17.20;98.80
45229;DHT22;30967;51.728;8.682;2022-09-16T18:23:35;17.20;98.80
45229;DHT22;30967;51.728;8.682;2022-09-16T18:26:06;17.10;98.80
45229;DHT22;30967;51.728;8.682;2022-09-16T18:28:39;17.10;98.80
45229;DHT22;30967;51.728;8.682;2022-09-16T18:31:12;17.10;98.80